Time;durP1;ratioP1;P1;durP2;ratioP2;P2;SDS_P1;SDS_P2;PMS_P1;PMS_P2;Temp;Humidity;BMP_temperature;BMP_pressure;BME280_temperature;BME280_humidity;BME280_pressure;Samples;Min_cycle;Max_cycle;Signal;HPM_P1;HPM_P2
2023/02/26 00:01:22;;;;;;;17.20;13.80;;;;;;;0.74;100.00;97743.83;109558;1251;58182;-75
2023/02/26 00:03:53;;;;;;;15.40;12.40;;;;;;;0.75;100.00;97749.42;109588;1251;58497;-75
2023/02/26 00:06:20;;;;;;;15.40;12.10;;;;;;;0.74;100.00;97752.25;109596;1251;65219;-75
2023/02/26 00:08:46;;;;;;;14.50;12.00;;;;;;;0.76;100.00;97757.58;109542;1251;60049;-76
2023/02/26 00:11:14;;;;;;;14.00;11.30;;;;;;;0.78;100.00;97762.38;109544;1251;64867;-75
2023/02/26 00:13:43;;;;;;;13.20;11.70;;;;;;;0.77;100.00;97764.33;109571;1251;58074;-75
2023/02/26 00:16:34;;;;;;;13.20;11.20;;;;;;;0.77;100.00;97770.98;109574;1251;58209;-75
2023/02/26 00:19:03;;;;;;;12.10;10.70;;;;;;;0.77;100.00;97773.09;109420;1251;66349;-75
2023/02/26 00:21:32;;;;;;;12.50;10.90;;;;;;;0.78;100.00;97775.81;109583;1251;60163;-75
2023/02/26 00:23:59;;;;;;;13.50;10.90;;;;;;;0.79;100.00;97783.10;109369;1251;64623;-76
2023/02/26 00:26:27;;;;;;;11.50;10.20;;;;;;;0.80;100.00;97788.49;109556;1251;58164;-75
2023/02/26 00:28:55;;;;;;;12.90;11.60;;;;;;;0.79;100.00;97789.77;109484;1252;58065;-75
2023/02/26 00:31:25;;;;;;;13.20;11.10;;;;;;;0.78;100.00;97789.98;109576;1251;64966;-74
2023/02/26 00:33:53;;;;;;;;;;;;;;;0.78;100.00;97792.11;109636;1251;60406;-74
2023/02/26 00:36:57;;;;;;;11.70;10.50;;;;;;;0.76;100.00;97795.65;109571;1250;64029;-74
2023/02/26 00:39:42;;;;;;;11.80;10.10;;;;;;;0.75;100.00;97797.12;108991;1258;58238;-74
2023/02/26 00:42:09;;;;;;;11.20;9.80;;;;;;;0.76;100.00;97801.63;109016;1259;58243;-74
2023/02/26 00:44:36;;;;;;;11.10;9.90;;;;;;;0.76;100.00;97802.48;109022;1259;64953;-74
2023/02/26 00:47:14;;;;;;;12.20;10.00;;;;;;;0.74;100.00;97803.45;109015;1258;60575;-74
2023/02/26 00:49:56;;;;;;;11.70;10.50;;;;;;;0.73;100.00;97803.85;109002;1259;63985;-74
2023/02/26 00:52:33;;;;;;;12.30;11.00;;;;;;;0.73;100.00;97806.30;108983;1259;58324;-75
2023/02/26 00:54:59;;;;;;;10.80;9.50;;;;;;;0.73;100.00;97807.70;108999;1259;58359;-74
2023/02/26 00:57:26;;;;;;;12.30;10.50;;;;;;;0.73;100.00;97804.35;108842;1259;64936;-75
2023/02/26 00:59:52;;;;;;;11.80;10.60;;;;;;;0.74;100.00;97806.08;109021;1258;61177;-75
2023/02/26 01:02:19;;;;;;;12.00;10.80;;;;;;;0.73;100.00;97804.55;108990;1258;65206;-75
2023/02/26 01:04:47;;;;;;;10.90;9.70;;;;;;;0.72;100.00;97802.68;108861;1258;58203;-75
2023/02/26 01:07:15;;;;;;;12.60;11.00;;;;;;;0.72;100.00;97804.42;109002;1259;58980;-75
2023/02/26 01:09:42;;;;;;;12.80;10.30;;;;;;;0.72;100.00;97799.02;109012;1259;65908;-76
2023/02/26 01:12:16;;;;;;;13.30;11.60;;;;;;;0.72;100.00;97797.25;109042;1258;60102;-76
2023/02/26 01:14:48;;;;;;;13.30;10.80;;;;;;;0.72;100.00;97793.44;107468;1258;1002872;-76
2023/02/26 01:17:33;;;;;;;13.00;9.90;;;;;;;0.71;100.00;97792.42;109514;1251;58198;-75
2023/02/26 01:20:05;;;;;;;10.70;9.50;;;;;;;0.70;100.00;97790.21;109377;1251;58296;-75
2023/02/26 01:22:53;;;;;;;11.00;9.80;;;;;;;0.67;100.00;97794.36;109552;1250;65982;-76
2023/02/26 01:25:23;;;;;;;10.20;8.40;;;;;;;0.63;100.00;97794.17;109516;1251;59742;-75
2023/02/26 01:27:49;;;;;;;10.00;8.70;;;;;;;0.59;100.00;97795.23;109547;1251;64997;-75
2023/02/26 01:30:17;;;;;;;13.80;9.80;;;;;;;0.55;100.00;97791.73;109251;1251;58267;-76
2023/02/26 01:32:49;;;;;;;10.80;8.20;;;;;;;0.52;100.00;97798.55;109562;1251;58994;-75
2023/02/26 01:35:47;;;;;;;11.10;9.90;;;;;;;0.50;100.00;97806.15;109497;1251;66205;-76
2023/02/26 01:38:33;;;;;;;14.70;10.90;;;;;;;0.48;100.00;97810.45;109591;1253;61132;-76
2023/02/26 01:41:23;;;;;;;13.20;11.20;;;;;;;0.46;100.00;97816.83;109628;1251;65044;-75
2023/02/26 01:44:14;;;;;;;14.50;12.10;;;;;;;0.43;100.00;97821.15;109543;1251;58165;-76
2023/02/26 01:46:59;;;;;;;15.20;11.80;;;;;;;0.41;100.00;97820.69;109573;1251;58355;-75
2023/02/26 01:49:26;;;;;;;18.10;13.00;;;;;;;0.41;100.00;97826.61;108801;1251;1002789;-76
2023/02/26 01:51:56;;;;;;;15.10;12.20;;;;;;;0.42;100.00;97828.50;109639;1250;60784;-75
2023/02/26 01:54:27;;;;;;;18.90;13.60;;;;;;;0.43;100.00;97835.08;109573;1251;64752;-75
2023/02/26 01:57:07;;;;;;;17.80;14.00;;;;;;;0.44;100.00;97842.58;109575;1251;58489;-75
2023/02/26 01:59:35;;;;;;;;;;;;;;;0.45;100.00;97847.08;109361;1251;58246;-75
2023/02/26 02:02:06;;;;;;;16.80;13.90;;;;;;;0.47;100.00;97849.63;109486;1251;66381;-75
2023/02/26 02:04:33;;;;;;;14.40;12.70;;;;;;;0.47;100.00;97850.99;109606;1250;61190;-75
2023/02/26 02:07:00;;;;;;;15.20;13.20;;;;;;;0.48;100.00;97858.51;109512;1251;65053;-75
2023/02/26 02:09:27;;;;;;;15.70;13.40;;;;;;;0.47;100.00;97862.02;109403;1250;58183;-75
2023/02/26 02:12:09;;;;;;;16.10;13.30;;;;;;;0.47;100.00;97865.15;109546;1251;58993;-75
2023/02/26 02:14:52;;;;;;;16.90;13.50;;;;;;;0.48;100.00;97863.35;109586;1251;65933;-75
2023/02/26 02:17:34;;;;;;;17.50;14.50;;;;;;;0.50;100.00;97864.17;109291;1251;61025;-75
2023/02/26 02:20:38;;;;;;;15.90;14.30;;;;;;;0.51;100.00;97871.30;109424;1251;64979;-75
2023/02/26 02:23:24;;;;;;;16.60;14.80;;;;;;;0.52;100.00;97876.83;109589;1251;58180;-75
2023/02/26 02:25:57;;;;;;;17.10;14.00;;;;;;;0.54;100.00;97886.34;109444;1251;58309;-75
2023/02/26 02:29:13;;;;;;;18.00;13.90;;;;;;;0.55;100.00;97893.27;109648;1251;64870;-76
2023/02/26 02:31:47;;;;;;;16.20;13.00;;;;;;;0.55;100.00;97895.89;108937;1258;59929;-75
2023/02/26 02:34:25;;;;;;;14.80;13.20;;;;;;;0.54;100.00;97897.86;108993;1258;64764;-75
2023/02/26 02:36:58;;;;;;;17.90;13.10;;;;;;;0.54;100.00;97900.66;108988;1259;58174;-75
2023/02/26 02:39:29;;;;;;;14.30;12.80;;;;;;;0.53;100.00;97903.89;108843;1258;58300;-76
2023/02/26 02:42:03;;;;;;;14.60;12.40;;;;;;;0.52;100.00;97906.01;108998;1259;66372;-75
2023/02/26 02:44:34;;;;;;;14.10;12.70;;;;;;;0.51;100.00;97907.44;108996;1259;60726;-76
2023/02/26 02:47:03;;;;;;;13.20;11.80;;;;;;;0.52;100.00;97909.69;109002;1258;65160;-76
2023/02/26 02:49:37;;;;;;;14.20;11.60;;;;;;;0.51;100.00;97909.73;109004;1258;58465;-75
2023/02/26 02:52:23;;;;;;;13.30;11.60;;;;;;;0.51;100.00;97906.42;109033;1258;59042;-75
2023/02/26 02:54:58;;;;;;;12.20;10.70;;;;;;;0.50;100.00;97903.65;108981;1259;65936;-75
2023/02/26 02:57:35;;;;;;;11.90;10.80;;;;;;;0.49;100.00;97901.05;109016;1259;61061;-76
2023/02/26 03:00:35;;;;;;;15.20;13.00;;;;;;;0.48;100.00;97898.66;109002;1259;64723;-75
2023/02/26 03:03:12;;;;;;;15.90;13.90;;;;;;;0.47;100.00;97900.65;108900;1258;58242;-75
2023/02/26 03:05:39;;;;;;;14.60;13.00;;;;;;;0.46;100.00;97903.10;108837;1259;58247;-75
2023/02/26 03:08:11;;;;;;;14.70;12.70;;;;;;;0.46;100.00;97905.23;109219;1251;64885;-74
2023/02/26 03:10:38;;;;;;;15.70;13.30;;;;;;;0.45;100.00;97907.00;109354;1251;60001;-75
2023/02/26 03:13:05;;;;;;;16.00;13.70;;;;;;;0.44;100.00;97911.40;109568;1251;64195;-74
2023/02/26 03:15:58;;;;;;;16.10;13.80;;;;;;;0.44;100.00;97919.45;109555;1251;58215;-75
2023/02/26 03:18:32;;;;;;;13.50;11.50;;;;;;;0.42;100.00;97926.53;109581;1251;58042;-75
2023/02/26 03:21:19;;;;;;;13.30;11.10;;;;;;;0.41;100.00;97936.73;109579;1251;66000;-75
2023/02/26 03:23:57;;;;;;;14.30;12.10;;;;;;;0.39;100.00;97944.46;109537;1251;61249;-74
2023/02/26 03:26:45;;;;;;;13.90;11.60;;;;;;;0.37;100.00;97947.70;109652;1251;63684;-75
2023/02/26 03:29:30;;;;;;;14.00;10.30;;;;;;;0.35;100.00;97958.12;109474;1251;58223;-75
2023/02/26 03:32:02;;;;;;;14.00;10.60;;;;;;;0.32;100.00;97964.35;109586;1251;58348;-74
2023/02/26 03:34:42;;;;;;;11.80;10.60;;;;;;;0.31;100.00;97971.92;109548;1251;66327;-74
2023/02/26 03:37:47;;;;;;;11.00;9.60;;;;;;;0.28;100.00;97971.70;109605;1251;61050;-75
2023/02/26 03:40:24;;;;;;;9.40;8.10;;;;;;;0.25;100.00;97974.60;108971;1258;63755;-74
2023/02/26 03:43:08;;;;;;;9.80;8.80;;;;;;;0.23;100.00;97980.10;108864;1258;58532;-74
2023/02/26 03:45:38;;;;;;;10.60;8.70;;;;;;;0.20;100.00;97980.20;109004;1258;58410;-75
2023/02/26 03:48:08;;;;;;;10.20;8.20;;;;;;;0.20;100.00;97985.48;108986;1259;66641;-74
2023/02/26 03:50:39;;;;;;;13.70;10.20;;;;;;;0.19;100.00;97984.11;109026;1259;59786;-75
2023/02/26 03:53:11;;;;;;;11.80;10.10;;;;;;;0.17;100.00;97983.80;108954;1259;65126;-75
2023/02/26 03:55:47;;;;;;;12.30;9.20;;;;;;;0.16;100.00;97989.29;108828;1260;58297;-74
2023/02/26 03:58:13;;;;;;;15.70;10.70;;;;;;;0.15;100.00;97986.03;109015;1258;58173;-74
2023/02/26 04:00:44;;;;;;;11.00;9.50;;;;;;;0.14;100.00;97991.49;109026;1258;66138;-75
2023/02/26 04:03:18;;;;;;;14.20;11.40;;;;;;;0.12;100.00;97997.30;108961;1259;60375;-74
2023/02/26 04:05:49;;;;;;;12.30;9.50;;;;;;;0.11;100.00;98004.17;108982;1259;64221;-74
2023/02/26 04:08:16;;;;;;;13.20;9.60;;;;;;;0.10;100.00;98008.95;109013;1259;58227;-75
2023/02/26 04:10:56;;;;;;;11.70;9.20;;;;;;;0.07;100.00;98013.05;108833;1258;58465;-74
2023/02/26 04:13:23;;;;;;;9.90;8.10;;;;;;;0.05;100.00;98019.64;108984;1258;66441;-75
2023/02/26 04:15:50;;;;;;;10.50;7.80;;;;;;;0.02;100.00;98022.02;109024;1259;60163;-75
2023/02/26 04:18:17;;;;;;;9.80;8.80;;;;;;;-0.01;100.00;98026.12;109537;1250;65012;-74
2023/02/26 04:20:43;;;;;;;11.80;8.30;;;;;;;-0.02;100.00;98026.01;109601;1252;58218;-75
2023/02/26 04:23:10;;;;;;;11.10;8.20;;;;;;;-0.03;100.00;98036.34;109591;1251;58277;-74
2023/02/26 04:25:37;;;;;;;9.60;8.00;;;;;;;-0.05;100.00;98037.81;109594;1251;65940;-75
2023/02/26 04:28:03;;;;;;;11.70;8.50;;;;;;;-0.06;100.00;98041.52;109595;1251;60019;-75
2023/02/26 04:30:30;;;;;;;10.20;8.00;;;;;;;-0.06;100.00;98047.46;109592;1251;64809;-75
2023/02/26 04:32:57;;;;;;;9.30;7.80;;;;;;;-0.07;100.00;98053.27;109617;1251;58183;-75
2023/02/26 04:35:24;;;;;;;10.20;9.10;;;;;;;-0.09;100.00;98054.02;109519;1251;58164;-75
2023/02/26 04:37:50;;;;;;;9.20;8.30;;;;;;;-0.09;100.00;98058.56;109570;1251;72586;-75
2023/02/26 04:40:17;;;;;;;10.10;7.90;;;;;;;-0.09;100.00;98061.38;109583;1250;60755;-75
2023/02/26 04:42:43;;;;;;;10.80;8.20;;;;;;;-0.11;100.00;98065.29;109574;1251;63750;-74
2023/02/26 04:45:10;;;;;;;10.70;8.90;;;;;;;-0.13;100.00;98070.08;109582;1251;58157;-75
2023/02/26 04:47:37;;;;;;;10.90;8.90;;;;;;;-0.14;100.00;98068.36;109402;1251;58078;-75
2023/02/26 04:50:04;;;;;;;10.30;8.00;;;;;;;-0.16;100.00;98068.96;109609;1253;66193;-75
2023/02/26 04:52:30;;;;;;;9.70;7.60;;;;;;;-0.17;100.00;98071.98;109557;1251;60177;-75
2023/02/26 04:54:57;;;;;;;10.00;8.30;;;;;;;-0.16;100.00;98074.40;109597;1253;64711;-75
2023/02/26 04:57:23;;;;;;;9.70;8.40;;;;;;;-0.17;100.00;98075.33;109581;1251;58134;-75
2023/02/26 04:59:50;;;;;;;11.30;7.90;;;;;;;-0.18;100.00;98081.63;109595;1251;58185;-74
2023/02/26 05:02:17;;;;;;;10.90;8.90;;;;;;;-0.19;100.00;98090.90;109554;1252;72699;-76
2023/02/26 05:04:44;;;;;;;11.20;8.50;;;;;;;-0.19;100.00;98096.68;109621;1251;59804;-75
2023/02/26 05:07:11;;;;;;;9.80;8.80;;;;;;;-0.19;100.00;98101.58;109611;1251;63965;-75
2023/02/26 05:09:37;;;;;;;10.60;8.20;;;;;;;-0.20;100.00;98107.52;109519;1252;58182;-76
2023/02/26 05:12:04;;;;;;;12.30;7.60;;;;;;;-0.19;100.00;98115.02;109619;1251;58243;-76
2023/02/26 05:14:31;;;;;;;9.50;8.40;;;;;;;-0.20;100.00;98118.20;108859;1253;1006859;-76
2023/02/26 05:16:57;;;;;;;10.10;8.70;;;;;;;-0.22;100.00;98118.91;109591;1251;59735;-75
2023/02/26 05:19:24;;;;;;;13.20;10.20;;;;;;;-0.22;100.00;98120.32;109557;1253;64017;-76
2023/02/26 05:21:50;;;;;;;10.70;8.70;;;;;;;-0.22;100.00;98119.48;109269;1251;58299;-76
2023/02/26 05:24:17;;;;;;;21.70;13.50;;;;;;;-0.23;100.00;98124.39;109584;1250;58146;-76
2023/02/26 05:26:43;;;;;;;28.40;16.90;;;;;;;-0.24;100.00;98126.17;109563;1252;64789;-76
2023/02/26 05:29:10;;;;;;;23.00;14.70;;;;;;;-0.26;100.00;98125.89;109598;1251;59864;-75
2023/02/26 05:31:37;;;;;;;13.60;9.90;;;;;;;-0.27;100.00;98127.70;109614;1252;62425;-76
2023/02/26 05:34:03;;;;;;;12.70;10.20;;;;;;;-0.29;100.00;98139.98;109607;1251;58143;-76
2023/02/26 05:36:30;;;;;;;11.90;8.20;;;;;;;-0.31;100.00;98152.27;109580;1251;58186;-75
2023/02/26 05:38:57;;;;;;;10.80;8.10;;;;;;;-0.32;100.00;98161.89;109633;1251;64937;-76
2023/02/26 05:41:24;;;;;;;10.60;8.80;;;;;;;-0.33;100.00;98173.98;109635;1251;61125;-76
2023/02/26 05:43:50;;;;;;;10.50;8.10;;;;;;;-0.33;100.00;98184.13;109602;1251;64819;-76
2023/02/26 05:46:17;;;;;;;11.70;8.60;;;;;;;-0.33;100.00;98188.30;109544;1251;58234;-76
2023/02/26 05:48:43;;;;;;;9.70;7.60;;;;;;;-0.34;100.00;98196.02;109626;1251;58152;-76
2023/02/26 05:51:10;;;;;;;12.90;7.70;;;;;;;-0.35;100.00;98201.81;109595;1251;65944;-75
2023/02/26 05:53:36;;;;;;;11.70;8.50;;;;;;;-0.36;100.00;98207.77;109309;1251;59770;-76
2023/02/26 05:56:04;;;;;;;10.00;7.80;;;;;;;-0.36;100.00;98213.91;109574;1251;64904;-76
2023/02/26 05:58:32;;;;;;;14.30;8.70;;;;;;;-0.35;100.00;98222.73;109589;1251;58203;-76
2023/02/26 06:00:59;;;;;;;9.00;7.40;;;;;;;-0.33;100.00;98224.05;109590;1252;58238;-76
2023/02/26 06:03:26;;;;;;;11.30;8.20;;;;;;;-0.30;100.00;98225.72;109598;1252;64845;-76
2023/02/26 06:05:52;;;;;;;11.10;7.70;;;;;;;-0.28;100.00;98233.33;109621;1251;61444;-76
2023/02/26 06:08:19;;;;;;;9.90;8.40;;;;;;;-0.26;100.00;98234.27;109295;1251;64924;-76
2023/02/26 06:10:45;;;;;;;10.90;9.20;;;;;;;-0.23;100.00;98235.77;109605;1251;58766;-76
2023/02/26 06:13:12;;;;;;;15.90;8.80;;;;;;;-0.22;100.00;98234.84;109504;1251;58280;-76
2023/02/26 06:15:38;;;;;;;11.80;8.50;;;;;;;-0.21;100.00;98242.33;109586;1251;65229;-76
2023/02/26 06:18:05;;;;;;;9.90;8.20;;;;;;;-0.20;100.00;98248.92;109653;1251;61241;-76
2023/02/26 06:20:32;;;;;;;12.70;9.00;;;;;;;-0.19;100.00;98253.61;109543;1252;65338;-76
2023/02/26 06:22:58;;;;;;;9.80;7.90;;;;;;;-0.18;100.00;98252.02;109554;1251;58259;-76
2023/02/26 06:25:25;;;;;;;11.10;8.20;;;;;;;-0.17;100.00;98256.52;109616;1251;58076;-76
2023/02/26 06:27:52;;;;;;;10.80;8.30;;;;;;;-0.15;100.00;98261.16;109600;1251;64856;-76
2023/02/26 06:30:18;;;;;;;12.50;8.60;;;;;;;-0.11;100.00;98261.35;109608;1251;60024;-76
2023/02/26 06:32:45;;;;;;;10.50;9.20;;;;;;;-0.04;100.00;98262.65;109564;1251;63786;-76
2023/02/26 06:35:12;;;;;;;13.40;9.20;;;;;;;0.10;100.00;98260.60;109599;1251;58252;-75
2023/02/26 06:37:38;;;;;;;10.10;8.10;;;;;;;0.25;100.00;98265.45;109315;1251;58238;-75
2023/02/26 06:40:06;;;;;;;9.10;7.50;;;;;;;0.37;100.00;98267.63;109536;1251;65920;-74
2023/02/26 06:42:33;;;;;;;11.10;8.50;;;;;;;0.45;100.00;98267.67;109283;1253;59764;-75
2023/02/26 06:44:59;;;;;;;12.40;9.00;;;;;;;0.56;100.00;98265.16;109583;1251;64854;-76
2023/02/26 06:47:26;;;;;;;10.60;8.90;;;;;;;0.65;100.00;98269.89;109560;1251;58070;-76
2023/02/26 06:49:52;;;;;;;14.40;8.60;;;;;;;0.75;100.00;98269.67;109652;1251;58297;-76
2023/02/26 06:52:19;;;;;;;12.50;9.20;;;;;;;0.80;100.00;98276.13;109597;1251;65159;-75
2023/02/26 06:54:46;;;;;;;13.50;8.90;;;;;;;0.86;100.00;98279.92;109624;1251;61147;-76
2023/02/26 06:57:12;;;;;;;11.50;8.70;;;;;;;0.90;100.00;98282.05;109562;1251;63834;-76
2023/02/26 06:59:39;;;;;;;8.20;5.80;;;;;;;0.88;100.00;98286.50;109288;1251;58205;-76
2023/02/26 07:02:06;;;;;;;12.10;9.80;;;;;;;0.82;100.00;98290.75;109595;1251;58259;-75
2023/02/26 07:04:32;;;;;;;10.20;7.20;;;;;;;0.73;100.00;98291.96;109617;1250;65871;-75
2023/02/26 07:06:59;;;;;;;7.00;6.30;;;;;;;0.66;100.00;98295.55;109601;1253;60839;-76
2023/02/26 07:09:25;;;;;;;8.40;6.30;;;;;;;0.57;100.00;98296.05;109596;1251;64813;-75
2023/02/26 07:11:52;;;;;;;10.10;8.00;;;;;;;0.52;100.00;98300.63;109540;1251;58246;-75
2023/02/26 07:14:18;;;;;;;14.90;10.30;;;;;;;0.50;100.00;98307.34;109569;1251;59024;-75
2023/02/26 07:16:45;;;;;;;21.50;12.50;;;;;;;0.52;100.00;98306.89;109558;1251;65829;-76
2023/02/26 07:19:12;;;;;;;19.90;11.80;;;;;;;0.56;100.00;98310.75;109580;1251;60109;-76
2023/02/26 07:21:38;;;;;;;22.40;12.50;;;;;;;0.65;100.00;98308.69;109539;1253;65450;-76
2023/02/26 07:24:05;;;;;;;33.40;14.50;;;;;;;0.77;100.00;98306.86;109583;1251;58124;-76
2023/02/26 07:26:32;;;;;;;18.60;10.80;;;;;;;0.89;100.00;98311.44;109625;1253;58160;-75
2023/02/26 07:28:58;;;;;;;14.00;9.90;;;;;;;0.99;100.00;98320.34;109595;1251;66256;-76
2023/02/26 07:31:25;;;;;;;15.30;10.40;;;;;;;1.04;100.00;98322.58;109566;1251;61040;-76
2023/02/26 07:33:52;;;;;;;21.10;11.50;;;;;;;1.12;100.00;98328.23;109259;1251;62437;-76
2023/02/26 07:36:19;;;;;;;14.70;10.90;;;;;;;1.23;100.00;98328.14;109546;1251;58147;-76
2023/02/26 07:38:45;;;;;;;14.40;9.80;;;;;;;1.32;100.00;98334.95;109592;1251;58137;-76
2023/02/26 07:41:12;;;;;;;10.10;9.00;;;;;;;1.39;100.00;98336.58;109593;1251;65884;-75
2023/02/26 07:43:39;;;;;;;12.60;10.10;;;;;;;1.43;100.00;98336.05;109422;1251;60760;-75
2023/02/26 07:46:05;;;;;;;12.10;9.70;;;;;;;1.40;100.00;98336.57;109581;1251;64936;-76
2023/02/26 07:48:32;;;;;;;10.90;8.60;;;;;;;1.32;100.00;98340.36;109389;1253;58219;-76
2023/02/26 07:50:58;;;;;;;11.00;8.60;;;;;;;1.27;100.00;98343.17;109581;1251;58277;-75
2023/02/26 07:53:25;;;;;;;11.40;9.00;;;;;;;1.25;100.00;98347.80;109574;1251;66518;-76
2023/02/26 07:55:52;;;;;;;10.60;8.90;;;;;;;1.27;100.00;98352.80;109278;1251;60059;-75
2023/02/26 07:58:18;;;;;;;12.40;8.50;;;;;;;1.31;100.00;98351.79;109606;1251;64003;-76
2023/02/26 08:00:45;;;;;;;10.30;9.20;;;;;;;1.33;100.00;98356.06;109571;1254;58102;-75
2023/02/26 08:03:12;;;;;;;11.80;9.80;;;;;;;1.38;100.00;98359.55;109536;1253;58162;-75
2023/02/26 08:05:38;;;;;;;10.50;8.50;;;;;;;1.43;100.00;98361.27;109622;1251;65946;-75
2023/02/26 08:08:05;;;;;;;8.50;7.60;;;;;;;1.44;100.00;98363.51;109616;1251;60784;-75
2023/02/26 08:10:32;;;;;;;7.10;6.40;;;;;;;1.44;100.00;98370.85;109576;1251;63805;-75
2023/02/26 08:12:58;;;;;;;5.20;4.70;;;;;;;1.46;100.00;98369.56;109583;1251;58160;-75
2023/02/26 08:15:25;;;;;;;5.80;4.60;;;;;;;1.49;100.00;98367.33;109558;1251;58112;-77
2023/02/26 08:17:52;;;;;;;5.40;4.90;;;;;;;1.54;100.00;98369.58;109623;1251;75025;-75
2023/02/26 08:20:19;;;;;;;6.60;5.00;;;;;;;1.60;100.00;98362.88;109543;1251;59873;-76
2023/02/26 08:22:45;;;;;;;5.10;3.40;;;;;;;1.67;100.00;98355.55;109292;1251;62450;-75
2023/02/26 08:25:12;;;;;;;3.80;3.30;;;;;;;1.69;100.00;98364.95;109558;1250;58162;-76
2023/02/26 08:27:38;;;;;;;3.00;1.80;;;;;;;1.68;100.00;98378.13;109645;1251;58303;-75
2023/02/26 08:30:06;;;;;;;2.80;2.20;;;;;;;1.67;100.00;98379.72;109540;1251;65334;-75
2023/02/26 08:32:33;;;;;;;2.20;1.30;;;;;;;1.70;100.00;98385.38;107225;1251;1002448;-75
2023/02/26 08:35:25;;;;;;;2.20;1.50;;;;;;;1.73;100.00;98388.95;109570;1251;65207;-75
2023/02/26 08:37:53;;;;;;;2.40;1.70;;;;;;;1.76;100.00;98396.36;109583;1251;58268;-75
2023/02/26 08:40:20;;;;;;;3.40;1.90;;;;;;;1.84;100.00;98398.48;109602;1251;58251;-75
2023/02/26 08:42:46;;;;;;;4.40;2.40;;;;;;;1.91;100.00;98396.27;108843;1251;1002875;-75
2023/02/26 08:45:13;;;;;;;2.10;1.70;;;;;;;1.98;100.00;98399.13;109577;1251;61219;-76
2023/02/26 08:47:44;;;;;;;4.10;2.80;;;;;;;2.02;100.00;98400.34;109545;1251;64037;-75
2023/02/26 08:50:11;;;;;;;5.60;3.00;;;;;;;2.12;100.00;98400.65;109534;1251;58163;-75
2023/02/26 08:52:38;;;;;;;5.80;4.00;;;;;;;2.21;100.00;98402.54;109573;1251;58172;-75
2023/02/26 08:55:06;;;;;;;5.00;3.60;;;;;;;2.28;100.00;98412.44;109610;1251;66264;-75
2023/02/26 08:57:32;;;;;;;4.30;3.00;;;;;;;2.42;100.00;98414.11;109642;1251;60567;-76
2023/02/26 08:59:59;;;;;;;4.40;3.30;;;;;;;2.55;100.00;98417.73;109543;1251;63706;-75
2023/02/26 09:02:25;;;;;;;9.00;5.40;;;;;;;2.67;100.00;98423.85;109551;1251;58139;-75
2023/02/26 09:04:52;;;;;;;3.70;3.10;;;;;;;2.72;100.00;98431.37;109582;1251;58152;-75
2023/02/26 09:07:19;;;;;;;6.50;3.40;;;;;;;2.70;100.00;98445.52;109565;1251;66397;-76
2023/02/26 09:09:46;;;;;;;5.70;2.90;;;;;;;2.66;100.00;98449.34;109564;1251;60106;-75
2023/02/26 09:12:12;;;;;;;3.00;2.50;;;;;;;2.70;100.00;98451.98;109603;1251;63957;-75
2023/02/26 09:14:39;;;;;;;3.30;2.50;;;;;;;2.71;100.00;98462.83;109537;1251;58135;-75
2023/02/26 09:17:05;;;;;;;4.10;2.60;;;;;;;2.65;100.00;98463.78;109561;1251;58285;-75
2023/02/26 09:19:32;;;;;;;3.50;2.80;;;;;;;2.54;100.00;98465.12;109571;1251;65197;-75
2023/02/26 09:21:59;;;;;;;4.40;3.00;;;;;;;2.34;100.00;98469.83;109562;1251;60690;-76
2023/02/26 09:24:25;;;;;;;5.30;3.30;;;;;;;2.10;100.00;98478.72;109561;1251;64761;-74
2023/02/26 09:26:52;;;;;;;6.20;5.00;;;;;;;1.83;100.00;98492.42;109175;1253;58249;-74
2023/02/26 09:29:19;;;;;;;6.60;5.90;;;;;;;1.45;100.00;98495.27;109570;1251;58197;-75
2023/02/26 09:31:45;;;;;;;7.90;6.30;;;;;;;1.01;100.00;98501.98;109527;1251;64931;-75
2023/02/26 09:34:12;;;;;;;7.50;4.60;;;;;;;0.60;100.00;98521.08;109555;1254;60689;-75
2023/02/26 09:36:39;;;;;;;4.10;3.30;;;;;;;0.30;100.00;98522.27;109337;1251;64706;-75
2023/02/26 09:39:07;;;;;;;3.30;2.70;;;;;;;0.19;100.00;98522.98;109570;1251;58218;-75
2023/02/26 09:41:48;;;;;;;3.90;3.00;;;;;;;0.25;100.00;98522.10;109544;1251;58249;-75
2023/02/26 09:44:31;;;;;;;5.70;4.00;;;;;;;0.43;100.00;98515.37;109448;1251;66259;-75
2023/02/26 09:47:23;;;;;;;5.70;3.80;;;;;;;0.68;100.00;98507.52;109588;1254;61529;-75
2023/02/26 09:49:53;;;;;;;8.60;4.80;;;;;;;0.96;100.00;98508.27;109580;1251;63983;-75
2023/02/26 09:52:31;;;;;;;5.80;4.10;;;;;;;1.15;100.00;98503.38;109603;1251;58476;-75
2023/02/26 09:55:03;;;;;;;7.30;4.80;;;;;;;1.35;100.00;98506.16;109564;1251;59033;-75
2023/02/26 09:57:34;;;;;;;6.40;4.60;;;;;;;1.49;100.00;98502.83;109571;1251;65276;-76
2023/02/26 10:00:02;;;;;;;;;;;;;;;1.59;100.00;98503.17;109593;1251;61215;-75
2023/02/26 10:02:38;;;;;;;3.30;2.40;;;;;;;1.65;100.00;98507.98;109578;1251;65653;-75
2023/02/26 10:05:08;;;;;;;3.70;2.10;;;;;;;1.75;100.00;98511.48;109544;1251;58106;-76
2023/02/26 10:07:45;;;;;;;3.30;2.80;;;;;;;1.80;100.00;98512.83;109600;1251;58084;-75
2023/02/26 10:10:28;;;;;;;2.30;1.70;;;;;;;1.83;100.00;98517.29;109518;1253;65865;-75
2023/02/26 10:12:56;;;;;;;3.70;2.70;;;;;;;1.88;100.00;98524.42;109551;1251;58564;-75
2023/02/26 10:15:30;;;;;;;3.90;2.40;;;;;;;1.95;100.00;98526.98;109477;1251;64763;-75
2023/02/26 10:18:20;;;;;;;5.00;2.50;;;;;;;2.07;100.00;98531.77;109608;1251;58287;-75
2023/02/26 10:21:00;;;;;;;3.80;2.20;;;;;;;2.23;100.00;98534.97;109551;1255;58038;-75
2023/02/26 10:23:36;;;;;;;2.80;2.60;;;;;;;2.51;100.00;98539.60;109546;1251;65355;-75
2023/02/26 10:26:12;;;;;;;3.70;3.20;;;;;;;2.79;100.00;98539.63;109566;1251;60748;-75
2023/02/26 10:29:03;;;;;;;7.80;4.90;;;;;;;2.99;100.00;98538.06;109556;1251;64178;-75
2023/02/26 10:31:54;;;;;;;3.80;3.30;;;;;;;3.04;100.00;98542.41;109507;1251;58298;-76
2023/02/26 10:34:50;;;;;;;3.60;3.10;;;;;;;3.16;100.00;98543.31;109606;1251;58150;-75
2023/02/26 10:37:26;;;;;;;3.90;3.10;;;;;;;3.40;100.00;98539.96;109596;1250;74871;-75
2023/02/26 10:40:26;;;;;;;6.00;3.80;;;;;;;3.51;100.00;98542.09;109616;1251;60379;-73
2023/02/26 10:42:59;;;;;;;4.10;3.50;;;;;;;3.65;100.00;98546.20;109582;1251;64676;-75
2023/02/26 10:45:44;;;;;;;6.50;4.20;;;;;;;3.74;100.00;98545.59;109390;1251;58154;-76
2023/02/26 10:48:31;;;;;;;5.00;3.80;;;;;;;3.74;100.00;98547.16;109575;1251;58163;-76
2023/02/26 10:51:04;;;;;;;8.10;4.70;;;;;;;3.60;100.00;98551.33;109449;1251;165309;-76
2023/02/26 10:53:33;;;;;;;6.70;4.80;;;;;;;3.45;100.00;98550.95;109621;1251;60766;-76
2023/02/26 10:56:13;;;;;;;5.20;4.10;;;;;;;3.35;100.00;98554.39;109610;1251;63712;-76
2023/02/26 10:58:40;;;;;;;6.40;3.90;;;;;;;3.22;100.00;98552.67;109502;1251;58190;-75
2023/02/26 11:01:16;;;;;;;5.70;3.60;;;;;;;3.05;100.00;98558.88;109438;1251;58428;-75
2023/02/26 11:03:47;;;;;;;4.60;3.20;;;;;;;2.89;100.00;98562.73;109604;1251;65167;-75
2023/02/26 11:06:22;;;;;;;3.80;3.40;;;;;;;2.87;100.00;98563.35;109618;1251;59955;-76
2023/02/26 11:08:53;;;;;;;4.20;3.00;;;;;;;2.87;100.00;98562.99;109562;1251;64186;-76
2023/02/26 11:11:36;;;;;;;4.70;2.80;;;;;;;2.95;100.00;98559.12;109537;1251;58137;-76
2023/02/26 11:14:03;;;;;;;3.90;2.80;;;;;;;3.02;100.00;98563.21;109609;1251;58185;-75
2023/02/26 11:16:29;;;;;;;4.20;2.60;;;;;;;3.09;100.00;98562.05;109568;1251;65300;-76
2023/02/26 11:18:59;;;;;;;4.20;3.00;;;;;;;3.27;100.00;98563.00;109621;1251;60190;-76
2023/02/26 11:21:36;;;;;;;3.90;2.50;;;;;;;3.50;100.00;98566.55;109499;1251;64674;-76
2023/02/26 11:24:12;;;;;;;3.60;2.60;;;;;;;3.52;100.00;98569.63;109442;1251;58210;-76
2023/02/26 11:26:43;;;;;;;4.00;2.80;;;;;;;3.44;100.00;98575.08;109554;1251;58015;-75
2023/02/26 11:29:16;;;;;;;4.60;3.20;;;;;;;3.46;100.00;98579.71;109551;1251;66011;-76
2023/02/26 11:31:47;;;;;;;4.40;3.10;;;;;;;3.53;100.00;98588.02;109586;1251;60717;-75
2023/02/26 11:34:14;;;;;;;3.70;2.50;;;;;;;3.46;100.00;98594.66;109548;1251;64017;-76
2023/02/26 11:36:43;;;;;;;3.20;2.50;;;;;;;3.34;100.00;98594.48;109595;1251;58158;-76